createdAt,value
2023-05-05T00:00:18.319Z,0.00
2023-05-05T00:01:18.305Z,0.00
2023-05-05T00:02:18.340Z,0.00
2023-05-05T00:03:18.372Z,0.00
2023-05-05T00:04:18.302Z,0.00
2023-05-05T00:05:18.270Z,0.00
2023-05-05T00:06:18.256Z,0.00
2023-05-05T00:07:19.279Z,0.00
2023-05-05T00:08:18.237Z,0.00
2023-05-05T00:09:18.225Z,0.00
2023-05-05T00:10:18.220Z,0.00
2023-05-05T00:11:18.226Z,0.00
2023-05-05T00:12:18.206Z,0.00
2023-05-05T00:13:18.179Z,0.00
2023-05-05T00:14:18.175Z,0.00
2023-05-05T00:15:18.168Z,0.00
2023-05-05T00:16:18.154Z,0.00
2023-05-05T00:17:18.217Z,0.00
2023-05-05T00:18:18.194Z,0.00
2023-05-05T00:19:18.130Z,0.00
2023-05-05T00:20:18.107Z,0.00
2023-05-05T00:21:18.181Z,0.00
2023-05-05T00:22:18.109Z,0.00
2023-05-05T00:23:18.085Z,0.00
2023-05-05T00:24:18.065Z,0.00
2023-05-05T00:25:19.073Z,0.00
2023-05-05T00:26:18.089Z,0.00
2023-05-05T00:27:18.048Z,0.00
2023-05-05T00:28:18.030Z,0.00
2023-05-05T00:29:18.035Z,0.00
2023-05-05T00:30:18.051Z,0.00
2023-05-05T00:31:18.023Z,0.00
2023-05-05T00:32:17.997Z,0.00
2023-05-05T00:33:17.982Z,0.00
2023-05-05T00:34:17.998Z,0.00
2023-05-05T00:35:18.013Z,0.00
2023-05-05T00:36:17.946Z,0.00
2023-05-05T00:37:17.941Z,0.00
2023-05-05T00:38:17.935Z,0.00
2023-05-05T00:39:17.932Z,0.00
2023-05-05T00:40:17.938Z,0.00
2023-05-05T00:41:17.905Z,0.00
2023-05-05T00:42:17.884Z,0.00
2023-05-05T00:43:17.888Z,0.00
2023-05-05T00:44:17.883Z,0.00
2023-05-05T00:45:17.903Z,0.00
2023-05-05T00:46:17.892Z,0.00
2023-05-05T00:47:17.843Z,0.00
2023-05-05T00:48:17.852Z,0.00
2023-05-05T00:49:17.885Z,0.00
2023-05-05T00:50:17.848Z,0.00
2023-05-05T00:51:17.835Z,0.00
2023-05-05T00:52:17.795Z,0.00
2023-05-05T00:53:17.789Z,0.00
2023-05-05T00:54:17.835Z,0.00
2023-05-05T00:55:17.768Z,0.00
2023-05-05T00:56:17.772Z,0.00
2023-05-05T00:57:17.758Z,0.00
2023-05-05T00:58:17.760Z,0.00
2023-05-05T00:59:17.742Z,0.00
2023-05-05T01:00:17.715Z,0.00
2023-05-05T01:01:17.742Z,0.00
2023-05-05T01:02:17.703Z,0.00
2023-05-05T01:03:17.846Z,0.00
2023-05-05T01:04:17.675Z,0.00
2023-05-05T01:05:17.657Z,0.00
2023-05-05T01:06:17.650Z,0.00
2023-05-05T01:07:17.642Z,0.00
2023-05-05T01:08:17.650Z,0.00
2023-05-05T01:09:17.637Z,0.00
2023-05-05T01:10:20.680Z,0.00
2023-05-05T01:11:18.605Z,0.00
2023-05-05T01:12:17.629Z,0.00
2023-05-05T01:13:17.599Z,0.00
2023-05-05T01:14:17.577Z,0.00
2023-05-05T01:15:17.619Z,0.00
2023-05-05T01:16:17.607Z,0.00
2023-05-05T01:17:17.576Z,0.00
2023-05-05T01:18:17.530Z,0.00
2023-05-05T01:19:17.528Z,0.00
2023-05-05T01:20:17.506Z,0.00
2023-05-05T01:21:17.506Z,0.00
2023-05-05T01:22:17.517Z,0.00
2023-05-05T01:23:17.525Z,0.00
2023-05-05T01:24:17.471Z,0.00
2023-05-05T01:25:17.471Z,0.00
2023-05-05T01:26:18.487Z,0.00
2023-05-05T01:27:17.476Z,0.00
2023-05-05T01:28:17.447Z,0.00
2023-05-05T01:29:17.425Z,0.00
2023-05-05T01:30:17.419Z,0.00
2023-05-05T01:31:17.468Z,0.00
2023-05-05T01:32:17.392Z,0.00
2023-05-05T01:33:17.389Z,0.00
2023-05-05T01:34:17.382Z,0.00
2023-05-05T01:35:17.363Z,0.00
2023-05-05T01:36:17.376Z,0.00
2023-05-05T01:37:17.355Z,0.00
2023-05-05T01:38:17.335Z,0.00
2023-05-05T01:39:17.341Z,0.00
2023-05-05T01:40:17.358Z,0.00
2023-05-05T01:41:17.317Z,0.00
2023-05-05T01:42:17.295Z,0.00
2023-05-05T01:43:17.284Z,0.00
2023-05-05T01:44:17.264Z,0.00
2023-05-05T01:45:17.294Z,0.00
2023-05-05T01:46:17.315Z,0.00
2023-05-05T01:47:17.239Z,0.00
2023-05-05T01:48:17.237Z,0.00
2023-05-05T01:49:17.255Z,0.00
2023-05-05T01:50:17.264Z,0.00
2023-05-05T01:51:17.201Z,0.00
2023-05-05T01:52:17.200Z,0.00
2023-05-05T01:53:17.191Z,0.00
2023-05-05T01:54:17.200Z,0.00
2023-05-05T01:55:17.189Z,0.00
2023-05-05T01:56:17.156Z,0.00
2023-05-05T01:57:17.151Z,0.00
2023-05-05T01:58:17.163Z,0.00
2023-05-05T01:59:17.185Z,0.00
2023-05-05T02:00:17.129Z,0.00
2023-05-05T02:01:17.123Z,0.00
2023-05-05T02:02:17.139Z,0.00
2023-05-05T02:03:17.311Z,0.00
2023-05-05T02:04:17.099Z,0.00
2023-05-05T02:05:17.119Z,0.00
2023-05-05T02:06:17.066Z,0.00
2023-05-05T02:07:17.084Z,0.00
2023-05-05T02:08:17.087Z,0.00
2023-05-05T02:09:17.063Z,0.00
2023-05-05T02:10:17.021Z,0.00
2023-05-05T02:11:17.026Z,0.00
2023-05-05T02:12:17.038Z,0.00
2023-05-05T02:13:17.151Z,0.00
2023-05-05T02:14:16.994Z,0.00
2023-05-05T02:15:16.988Z,0.00
2023-05-05T02:16:18.141Z,0.00
2023-05-05T02:17:17.010Z,0.00
2023-05-05T02:18:17.059Z,0.00
2023-05-05T02:19:16.947Z,0.00
2023-05-05T02:20:16.939Z,0.00
2023-05-05T02:21:16.925Z,0.00
2023-05-05T02:22:16.968Z,0.00
2023-05-05T02:23:16.929Z,0.00
2023-05-05T02:24:16.905Z,0.00
2023-05-05T02:25:16.904Z,0.00
2023-05-05T02:26:16.889Z,0.00
2023-05-05T02:27:16.894Z,0.00
2023-05-05T02:28:16.882Z,0.00
2023-05-05T02:29:16.872Z,0.00
2023-05-05T02:30:16.854Z,0.00
2023-05-05T02:31:16.847Z,0.00
2023-05-05T02:32:16.846Z,0.00
2023-05-05T02:33:16.815Z,0.00
2023-05-05T02:34:16.805Z,0.00
2023-05-05T02:35:16.804Z,0.00
2023-05-05T02:36:16.798Z,0.00
2023-05-05T02:37:16.807Z,0.00
2023-05-05T02:38:16.764Z,0.00
2023-05-05T02:39:16.761Z,0.00
2023-05-05T02:40:16.753Z,0.00
2023-05-05T02:41:16.799Z,0.00
2023-05-05T02:42:16.727Z,0.00
2023-05-05T02:43:16.797Z,0.00
2023-05-05T02:44:16.727Z,0.00
2023-05-05T02:45:16.712Z,0.00
2023-05-05T02:46:16.747Z,0.00
2023-05-05T02:47:16.682Z,0.00
2023-05-05T02:48:16.668Z,0.00
2023-05-05T02:49:16.661Z,0.00
2023-05-05T02:50:16.682Z,0.00
2023-05-05T02:51:16.665Z,0.00
2023-05-05T02:52:16.619Z,0.00
2023-05-05T02:53:16.655Z,0.00
2023-05-05T02:54:16.615Z,0.00
2023-05-05T02:55:16.624Z,0.00
2023-05-05T02:56:16.587Z,0.00
2023-05-05T02:57:16.571Z,0.00
2023-05-05T02:58:16.573Z,0.00
2023-05-05T02:59:16.691Z,0.00
2023-05-05T03:00:16.580Z,0.00
2023-05-05T03:01:16.564Z,0.00
2023-05-05T03:02:16.535Z,0.00
2023-05-05T03:03:16.715Z,0.00
2023-05-05T03:04:16.533Z,0.00
2023-05-05T03:05:16.535Z,0.00
2023-05-05T03:06:16.590Z,0.00
2023-05-05T03:07:16.493Z,0.00
2023-05-05T03:08:16.472Z,0.00
2023-05-05T03:09:16.499Z,0.00
2023-05-05T03:10:16.455Z,0.00
2023-05-05T03:11:16.444Z,0.00
2023-05-05T03:12:16.458Z,0.00
2023-05-05T03:13:16.450Z,4.00
2023-05-05T03:14:16.451Z,4.00
2023-05-05T03:15:16.437Z,4.00
2023-05-05T03:16:16.438Z,0.00
2023-05-05T03:17:16.414Z,4.00
2023-05-05T03:18:16.422Z,4.00
2023-05-05T03:19:16.445Z,4.00
2023-05-05T03:20:16.361Z,4.00
2023-05-05T03:21:16.391Z,8.00
2023-05-05T03:22:16.359Z,8.00
2023-05-05T03:23:16.364Z,8.00
2023-05-05T03:24:16.312Z,12.00
2023-05-05T03:25:16.331Z,12.00
2023-05-05T03:26:16.298Z,16.00
2023-05-05T03:27:16.313Z,16.00
2023-05-05T03:28:16.312Z,20.00
2023-05-05T03:29:16.288Z,24.00
2023-05-05T03:30:16.277Z,28.00
2023-05-05T03:31:16.279Z,28.00
2023-05-05T03:32:16.338Z,36.00
2023-05-05T03:33:16.272Z,40.00
2023-05-05T03:34:16.233Z,44.00
2023-05-05T03:35:16.215Z,52.00
2023-05-05T03:36:16.229Z,60.00
2023-05-05T03:37:16.218Z,68.00
2023-05-05T03:38:16.190Z,80.00
2023-05-05T03:39:16.175Z,92.00
2023-05-05T03:40:16.179Z,100.00
2023-05-05T03:41:16.182Z,116.00
2023-05-05T03:42:16.219Z,132.00
2023-05-05T03:43:16.132Z,148.00
2023-05-05T03:44:16.122Z,164.00
2023-05-05T03:45:16.107Z,184.00
2023-05-05T03:46:16.256Z,204.00
2023-05-05T03:47:16.095Z,220.00
2023-05-05T03:48:16.078Z,244.00
2023-05-05T03:49:16.104Z,264.00
2023-05-05T03:50:16.063Z,284.00
2023-05-05T03:51:16.075Z,312.00
2023-05-05T03:52:16.049Z,336.00
2023-05-05T03:53:16.033Z,360.00
2023-05-05T03:54:16.027Z,384.00
2023-05-05T03:55:16.042Z,412.00
2023-05-05T03:56:16.033Z,444.00
2023-05-05T03:57:15.995Z,468.00
2023-05-05T03:58:15.986Z,500.00
2023-05-05T03:59:15.986Z,524.00
2023-05-05T04:00:16.002Z,556.00
2023-05-05T04:01:15.958Z,588.00
2023-05-05T04:02:18.393Z,624.00
2023-05-05T04:03:16.090Z,664.00
2023-05-05T04:04:15.957Z,704.00
2023-05-05T04:05:15.945Z,740.00
2023-05-05T04:06:15.923Z,776.00
2023-05-05T04:07:15.912Z,808.00
2023-05-05T04:08:15.963Z,844.00
2023-05-05T04:09:15.898Z,884.00
2023-05-05T04:10:15.905Z,924.00
2023-05-05T04:11:15.867Z,972.00
2023-05-05T04:12:15.854Z,1020.00
2023-05-05T04:13:15.865Z,1072.00
2023-05-05T04:14:15.848Z,1136.00
2023-05-05T04:15:15.840Z,1196.00
2023-05-05T04:16:15.860Z,1264.00
2023-05-05T04:17:15.836Z,1332.00
2023-05-05T04:18:15.794Z,1392.00
2023-05-05T04:19:15.782Z,1452.00
2023-05-05T04:20:15.809Z,1516.00
2023-05-05T04:21:15.773Z,1584.00
2023-05-05T04:22:15.786Z,1660.00
2023-05-05T04:23:15.779Z,1728.00
2023-05-05T04:24:15.761Z,1800.00
2023-05-05T04:25:15.730Z,1876.00
2023-05-05T04:26:15.721Z,1968.00
2023-05-05T04:27:15.705Z,2072.00
2023-05-05T04:28:15.858Z,2164.00
2023-05-05T04:29:15.676Z,2252.00
2023-05-05T04:30:15.676Z,2336.00
2023-05-05T04:31:15.732Z,2420.00
2023-05-05T04:32:15.668Z,2500.00
2023-05-05T04:33:15.660Z,2580.00
2023-05-05T04:34:15.642Z,2660.00
2023-05-05T04:35:15.632Z,2724.00
2023-05-05T04:36:15.638Z,2788.00
2023-05-05T04:37:15.654Z,2840.00
2023-05-05T04:38:15.598Z,2896.00
2023-05-05T04:39:15.607Z,2952.00
2023-05-05T04:40:16.592Z,3000.00
2023-05-05T04:41:15.581Z,3060.00
2023-05-05T04:42:15.557Z,3108.00
2023-05-05T04:43:15.571Z,3152.00
2023-05-05T04:44:15.540Z,3224.00
2023-05-05T04:45:16.526Z,3284.00
2023-05-05T04:46:15.576Z,3292.00
2023-05-05T04:47:15.513Z,3352.00
2023-05-05T04:48:15.504Z,3436.00
2023-05-05T04:49:15.519Z,3440.00
2023-05-05T04:50:15.487Z,3444.00
2023-05-05T04:51:15.467Z,3440.00
2023-05-05T04:52:15.477Z,3620.00
2023-05-05T04:53:15.453Z,3684.00
2023-05-05T04:54:15.459Z,3720.00
2023-05-05T04:55:15.421Z,3784.00
2023-05-05T04:56:15.446Z,3840.00
2023-05-05T04:57:15.427Z,3964.00
2023-05-05T04:58:15.405Z,4044.00
2023-05-05T04:59:15.392Z,4076.00
2023-05-05T05:00:15.385Z,4128.00
2023-05-05T05:01:15.408Z,4148.00
2023-05-05T05:02:15.396Z,4184.00
2023-05-05T05:03:15.450Z,4216.00
2023-05-05T05:04:15.338Z,4240.00
2023-05-05T05:05:15.362Z,4332.00
2023-05-05T05:06:15.322Z,4276.00
2023-05-05T05:07:15.330Z,4448.00
2023-05-05T05:08:15.375Z,4816.00
2023-05-05T05:09:15.315Z,4860.00
2023-05-05T05:10:15.301Z,5088.00
2023-05-05T05:11:15.282Z,5200.00
2023-05-05T05:12:15.258Z,5328.00
2023-05-05T05:13:15.410Z,5396.00
2023-05-05T05:14:15.266Z,5404.00
2023-05-05T05:15:15.259Z,5872.00
2023-05-05T05:16:15.331Z,6228.00
2023-05-05T05:17:15.222Z,6420.00
2023-05-05T05:18:15.207Z,6548.00
2023-05-05T05:19:15.219Z,6636.00
2023-05-05T05:20:15.208Z,6660.00
2023-05-05T05:21:15.177Z,6660.00
2023-05-05T05:22:15.172Z,6596.00
2023-05-05T05:23:15.153Z,6564.00
2023-05-05T05:24:15.164Z,6468.00
2023-05-05T05:25:15.138Z,6524.00
2023-05-05T05:26:15.119Z,6532.00
2023-05-05T05:27:15.111Z,6496.00
2023-05-05T05:28:15.093Z,6400.00
2023-05-05T05:29:15.138Z,6248.00
2023-05-05T05:30:15.076Z,6216.00
2023-05-05T05:31:15.064Z,5656.00
2023-05-05T05:32:15.154Z,5668.00
2023-05-05T05:33:15.083Z,5808.00
2023-05-05T05:34:15.163Z,6004.00
2023-05-05T05:35:15.042Z,5996.00
2023-05-05T05:36:15.010Z,5904.00
2023-05-05T05:37:15.009Z,5868.00
2023-05-05T05:38:15.022Z,5876.00
2023-05-05T05:39:14.986Z,5864.00
2023-05-05T05:40:14.977Z,5908.00
2023-05-05T05:41:14.957Z,6012.00
2023-05-05T05:42:14.975Z,6132.00
2023-05-05T05:43:14.980Z,6136.00
2023-05-05T05:44:14.935Z,6128.00
2023-05-05T05:45:14.928Z,6088.00
2023-05-05T05:46:14.956Z,6096.00
2023-05-05T05:47:14.933Z,6116.00
2023-05-05T05:48:14.925Z,6148.00
2023-05-05T05:49:14.882Z,6184.00
2023-05-05T05:50:46.794Z,6164.00
2023-05-05T05:51:14.875Z,6240.00
2023-05-05T05:52:14.908Z,6316.00
2023-05-05T05:53:14.850Z,6428.00
2023-05-05T05:54:14.831Z,6332.00
2023-05-05T05:55:14.824Z,6160.00
2023-05-05T05:56:14.808Z,6168.00
2023-05-05T05:57:14.818Z,6144.00
2023-05-05T05:58:14.781Z,6380.00
2023-05-05T05:59:14.777Z,6140.00
2023-05-05T06:00:14.780Z,6152.00
2023-05-05T06:01:14.784Z,6264.00
2023-05-05T06:02:14.835Z,6480.00
2023-05-05T06:03:14.856Z,6836.00
2023-05-05T06:04:14.774Z,6816.00
2023-05-05T06:05:14.722Z,7196.00
2023-05-05T06:06:14.737Z,6964.00
2023-05-05T06:07:14.704Z,7436.00
2023-05-05T06:08:14.689Z,7296.00
2023-05-05T06:09:14.672Z,7472.00
2023-05-05T06:10:25.826Z,7620.00
2023-05-05T06:11:16.670Z,7884.00
2023-05-05T06:12:14.646Z,8416.00
2023-05-05T06:13:14.654Z,8888.00
2023-05-05T06:14:14.636Z,8976.00
2023-05-05T06:15:14.640Z,9096.00
2023-05-05T06:16:14.654Z,9344.00
2023-05-05T06:17:14.603Z,9404.00
2023-05-05T06:18:14.650Z,9392.00
2023-05-05T06:19:14.589Z,9376.00
2023-05-05T06:20:14.598Z,9432.00
2023-05-05T06:21:14.553Z,9384.00
2023-05-05T06:22:14.585Z,8712.00
2023-05-05T06:23:14.536Z,9352.00
2023-05-05T06:24:14.527Z,10156.00
2023-05-05T06:25:14.534Z,10316.00
2023-05-05T06:26:14.510Z,10248.00
2023-05-05T06:27:14.502Z,10824.00
2023-05-05T06:28:14.497Z,10876.00
2023-05-05T06:29:14.511Z,11164.00
2023-05-05T06:30:14.483Z,11020.00
2023-05-05T06:31:14.497Z,10640.00
2023-05-05T06:32:14.446Z,10148.00
2023-05-05T06:33:14.437Z,9732.00
2023-05-05T06:34:14.443Z,8976.00
2023-05-05T06:35:14.423Z,9228.00
2023-05-05T06:36:14.525Z,8280.00
2023-05-05T06:37:14.396Z,8136.00
2023-05-05T06:38:14.390Z,9164.00
2023-05-05T06:39:16.010Z,9480.00
2023-05-05T06:40:15.361Z,9728.00
2023-05-05T06:41:14.372Z,9968.00
2023-05-05T06:42:14.351Z,9716.00
2023-05-05T06:43:14.352Z,10280.00
2023-05-05T06:44:14.348Z,10576.00
2023-05-05T06:45:14.324Z,10580.00
2023-05-05T06:46:14.362Z,9760.00
2023-05-05T06:47:14.320Z,10220.00
2023-05-05T06:48:14.309Z,9288.00
2023-05-05T06:49:14.282Z,9048.00
2023-05-05T06:50:14.307Z,8948.00
2023-05-05T06:51:14.275Z,8996.00
2023-05-05T06:52:14.252Z,9088.00
2023-05-05T06:53:14.292Z,9068.00
2023-05-05T06:54:14.232Z,8940.00
2023-05-05T06:55:14.229Z,8748.00
2023-05-05T06:56:14.226Z,8600.00
2023-05-05T06:57:14.218Z,8576.00
2023-05-05T06:58:14.218Z,8620.00
2023-05-05T06:59:14.342Z,8700.00
2023-05-05T07:00:14.176Z,8836.00
2023-05-05T07:01:14.203Z,8912.00
2023-05-05T07:02:14.163Z,9024.00
2023-05-05T07:03:14.194Z,9520.00
2023-05-05T07:04:14.213Z,9272.00
2023-05-05T07:05:14.148Z,9484.00
2023-05-05T07:06:14.118Z,9944.00
2023-05-05T07:07:14.112Z,9264.00
2023-05-05T07:08:14.083Z,9028.00
2023-05-05T07:09:16.399Z,9040.00
2023-05-05T07:10:14.082Z,9364.00
2023-05-05T07:11:14.535Z,10248.00
2023-05-05T07:12:14.080Z,9320.00
2023-05-05T07:13:14.129Z,9036.00
2023-05-05T07:14:14.029Z,9636.00
2023-05-05T07:15:26.730Z,10180.00
2023-05-05T07:16:16.070Z,9760.00
2023-05-05T07:17:14.016Z,10760.00
2023-05-05T07:18:14.034Z,10400.00
2023-05-05T07:19:14.007Z,10920.00
2023-05-05T07:20:14.000Z,10212.00
2023-05-05T07:21:14.003Z,9940.00
2023-05-05T07:22:13.960Z,9816.00
2023-05-05T07:23:13.976Z,10472.00
2023-05-05T07:24:13.928Z,9908.00
2023-05-05T07:25:13.944Z,9584.00
2023-05-05T07:26:13.941Z,9744.00
2023-05-05T07:27:13.928Z,9884.00
2023-05-05T07:28:13.897Z,10024.00
2023-05-05T07:29:13.913Z,10376.00
2023-05-05T07:30:17.531Z,10700.00
2023-05-05T07:31:14.919Z,10940.00
2023-05-05T07:32:13.958Z,11232.00
2023-05-05T07:33:13.832Z,11504.00
2023-05-05T07:34:13.835Z,11932.00
2023-05-05T07:35:13.936Z,12424.00
2023-05-05T07:36:13.802Z,12744.00
2023-05-05T07:37:14.811Z,13100.00
2023-05-05T07:38:13.797Z,12840.00
2023-05-05T07:39:13.800Z,12760.00
2023-05-05T07:40:13.874Z,12540.00
2023-05-05T07:41:13.777Z,10920.00
2023-05-05T07:42:13.762Z,11852.00
2023-05-05T07:43:13.809Z,10320.00
2023-05-05T07:44:13.748Z,10048.00
2023-05-05T07:45:13.736Z,11200.00
2023-05-05T07:46:13.746Z,10136.00
2023-05-05T07:47:13.840Z,9396.00
2023-05-05T07:48:13.689Z,10576.00
2023-05-05T07:49:13.690Z,10144.00
2023-05-05T07:50:13.686Z,10012.00
2023-05-05T07:51:13.661Z,10396.00
2023-05-05T07:52:13.841Z,10820.00
2023-05-05T07:53:15.147Z,11148.00
2023-05-05T07:54:14.651Z,10924.00
2023-05-05T07:55:13.621Z,11668.00
2023-05-05T07:56:13.614Z,12440.00
2023-05-05T07:57:13.633Z,11592.00
2023-05-05T07:58:13.605Z,10812.00
2023-05-05T07:59:13.572Z,10080.00
2023-05-05T08:00:13.628Z,9736.00
2023-05-05T08:01:13.590Z,9564.00
2023-05-05T08:02:13.563Z,9476.00
2023-05-05T08:03:13.689Z,9356.00
2023-05-05T08:04:13.706Z,8728.00
2023-05-05T08:05:13.580Z,7864.00
2023-05-05T08:06:13.516Z,7328.00
2023-05-05T08:07:13.512Z,7116.00
2023-05-05T08:08:14.172Z,7132.00
2023-05-05T08:09:13.483Z,7252.00
2023-05-05T08:10:13.471Z,7464.00
2023-05-05T08:11:13.470Z,7612.00
2023-05-05T08:12:13.496Z,7632.00
2023-05-05T08:13:13.577Z,7584.00
2023-05-05T08:14:13.423Z,7612.00
2023-05-05T08:15:13.417Z,7624.00
2023-05-05T08:16:13.486Z,7548.00
2023-05-05T08:17:13.419Z,7460.00
2023-05-05T08:18:13.406Z,7468.00
2023-05-05T08:19:27.708Z,7584.00
2023-05-05T08:20:15.421Z,7684.00
2023-05-05T08:21:13.377Z,7780.00
2023-05-05T08:22:13.374Z,8148.00
2023-05-05T08:23:13.353Z,8592.00
2023-05-05T08:24:13.340Z,9116.00
2023-05-05T08:25:13.367Z,9652.00
2023-05-05T08:26:13.340Z,10052.00
2023-05-05T08:27:13.325Z,10128.00
2023-05-05T08:28:13.289Z,9928.00
2023-05-05T08:29:13.283Z,9716.00
2023-05-05T08:30:13.272Z,9776.00
2023-05-05T08:31:13.373Z,10000.00
2023-05-05T08:32:13.270Z,10028.00
2023-05-05T08:33:13.296Z,9740.00
2023-05-05T08:34:13.239Z,9452.00
2023-05-05T08:35:13.673Z,9360.00
2023-05-05T08:36:13.235Z,9312.00
2023-05-05T08:37:13.237Z,9348.00
2023-05-05T08:38:13.200Z,9656.00
2023-05-05T08:39:13.188Z,10168.00
2023-05-05T08:40:13.190Z,10852.00
2023-05-05T08:41:13.169Z,11304.00
2023-05-05T08:42:19.690Z,11588.00
2023-05-05T08:43:15.145Z,11936.00
2023-05-05T08:44:13.129Z,12752.00
2023-05-05T08:45:13.240Z,13376.00
2023-05-05T08:46:13.152Z,13440.00
2023-05-05T08:47:13.113Z,13868.00
2023-05-05T08:48:13.104Z,13792.00
2023-05-05T08:49:13.108Z,13792.00
2023-05-05T08:50:13.124Z,14204.00
2023-05-05T08:51:13.131Z,14720.00
2023-05-05T08:52:13.066Z,14688.00
2023-05-05T08:53:13.044Z,12704.00
2023-05-05T08:54:13.059Z,12584.00
2023-05-05T08:55:13.034Z,12948.00
2023-05-05T08:56:13.008Z,14624.00
2023-05-05T08:57:13.005Z,13308.00
2023-05-05T08:58:12.986Z,13020.00
2023-05-05T08:59:12.997Z,13388.00
2023-05-05T09:00:12.975Z,11620.00
2023-05-05T09:01:13.019Z,11048.00
2023-05-05T09:02:12.987Z,10860.00
2023-05-05T09:03:13.313Z,10960.00
2023-05-05T09:04:12.952Z,10956.00
2023-05-05T09:05:12.925Z,10868.00
2023-05-05T09:06:12.913Z,10900.00
2023-05-05T09:07:12.898Z,10828.00
2023-05-05T09:08:12.930Z,10968.00
2023-05-05T09:09:13.704Z,11132.00
2023-05-05T09:10:12.907Z,12760.00
2023-05-05T09:11:12.869Z,11588.00
2023-05-05T09:12:12.872Z,11216.00
2023-05-05T09:13:12.934Z,10964.00
2023-05-05T09:14:12.872Z,10700.00
2023-05-05T09:15:12.829Z,10552.00
2023-05-05T09:16:12.871Z,10668.00
2023-05-05T09:17:12.818Z,10824.00
2023-05-05T09:18:12.907Z,11112.00
2023-05-05T09:19:13.783Z,11556.00
2023-05-05T09:20:12.785Z,12284.00
2023-05-05T09:21:12.760Z,13040.00
2023-05-05T09:22:12.774Z,13612.00
2023-05-05T09:23:12.745Z,13816.00
2023-05-05T09:24:12.760Z,13884.00
2023-05-05T09:25:12.735Z,13772.00
2023-05-05T09:26:12.716Z,13576.00
2023-05-05T09:27:12.733Z,13476.00
2023-05-05T09:28:12.707Z,13712.00
2023-05-05T09:29:12.692Z,14644.00
2023-05-05T09:30:12.695Z,13804.00
2023-05-05T09:31:12.747Z,13780.00
2023-05-05T09:32:12.682Z,15296.00
2023-05-05T09:33:12.715Z,15488.00
2023-05-05T09:34:12.646Z,15296.00
2023-05-05T09:35:12.650Z,14944.00
2023-05-05T09:36:12.694Z,14560.00
2023-05-05T09:37:12.636Z,14368.00
2023-05-05T09:38:12.605Z,14304.00
2023-05-05T09:39:12.598Z,14368.00
2023-05-05T09:40:12.586Z,14656.00
2023-05-05T09:41:12.601Z,14592.00
2023-05-05T09:42:12.578Z,14752.00
2023-05-05T09:43:12.568Z,14880.00
2023-05-05T09:44:12.549Z,14912.00
2023-05-05T09:45:12.564Z,14480.00
2023-05-05T09:46:12.570Z,15520.00
2023-05-05T09:47:26.104Z,15520.00
2023-05-05T09:48:14.582Z,15232.00
2023-05-05T09:49:12.500Z,14912.00
2023-05-05T09:50:12.519Z,13548.00
2023-05-05T09:51:12.490Z,13312.00
2023-05-05T09:52:12.466Z,13360.00
2023-05-05T09:53:12.453Z,13304.00
2023-05-05T09:54:12.447Z,12952.00
2023-05-05T09:55:12.518Z,12416.00
2023-05-05T09:56:12.438Z,12080.00
2023-05-05T09:57:12.425Z,11668.00
2023-05-05T09:58:12.460Z,11368.00
2023-05-05T09:59:12.400Z,11396.00
2023-05-05T10:00:12.386Z,11628.00
2023-05-05T10:01:12.387Z,12068.00
2023-05-05T10:02:12.369Z,12368.00
2023-05-05T10:03:12.396Z,13140.00
2023-05-05T10:04:12.390Z,13164.00
2023-05-05T10:05:12.535Z,13228.00
2023-05-05T10:06:12.348Z,13204.00
2023-05-05T10:07:12.323Z,13032.00
2023-05-05T10:08:12.324Z,12924.00
2023-05-05T10:09:12.370Z,12920.00
2023-05-05T10:10:12.351Z,13504.00
2023-05-05T10:11:12.348Z,13376.00
2023-05-05T10:12:12.289Z,13036.00
2023-05-05T10:13:12.316Z,13204.00
2023-05-05T10:14:12.276Z,13440.00
2023-05-05T10:15:12.232Z,13504.00
2023-05-05T10:16:12.298Z,13480.00
2023-05-05T10:17:12.212Z,13564.00
2023-05-05T10:18:12.387Z,13608.00
2023-05-05T10:19:12.195Z,13628.00
2023-05-05T10:20:12.189Z,13572.00
2023-05-05T10:21:12.176Z,13536.00
2023-05-05T10:22:12.175Z,13636.00
2023-05-05T10:23:12.185Z,13716.00
2023-05-05T10:24:12.159Z,13928.00
2023-05-05T10:25:12.143Z,14024.00
2023-05-05T10:26:12.150Z,14096.00
2023-05-05T10:27:12.718Z,14012.00
2023-05-05T10:28:13.143Z,13968.00
2023-05-05T10:29:12.107Z,14000.00
2023-05-05T10:30:12.091Z,14292.00
2023-05-05T10:31:24.182Z,14816.00
2023-05-05T10:32:40.833Z,15520.00
2023-05-05T10:33:30.120Z,15872.00
2023-05-05T10:34:14.104Z,16064.00
2023-05-05T10:35:12.057Z,16480.00
2023-05-05T10:36:12.044Z,16800.00
2023-05-05T10:37:12.049Z,16928.00
2023-05-05T10:38:12.030Z,17248.00
2023-05-05T10:39:12.057Z,17632.00
2023-05-05T10:40:12.008Z,17984.00
2023-05-05T10:41:12.009Z,18272.00
2023-05-05T10:42:11.987Z,18624.00
2023-05-05T10:43:12.148Z,18912.00
2023-05-05T10:44:11.982Z,18976.00
2023-05-05T10:45:12.030Z,19008.00
2023-05-05T10:46:12.002Z,18912.00
2023-05-05T10:47:11.940Z,18912.00
2023-05-05T10:48:12.033Z,18912.00
2023-05-05T10:49:13.178Z,18688.00
2023-05-05T10:50:11.957Z,18624.00
2023-05-05T10:51:11.918Z,18528.00
2023-05-05T10:52:11.914Z,18304.00
2023-05-05T10:53:11.869Z,18016.00
2023-05-05T10:54:11.881Z,18496.00
2023-05-05T10:55:11.897Z,18592.00
2023-05-05T10:56:11.861Z,18560.00
2023-05-05T10:57:11.840Z,19104.00
2023-05-05T10:58:11.828Z,19264.00
2023-05-05T10:59:11.944Z,19136.00
2023-05-05T11:00:12.916Z,19040.00
2023-05-05T11:01:11.859Z,18976.00
2023-05-05T11:02:11.797Z,18912.00
2023-05-05T11:03:11.818Z,19520.00
2023-05-05T11:04:11.773Z,19520.00
2023-05-05T11:05:11.789Z,20192.00
2023-05-05T11:06:11.765Z,19616.00
2023-05-05T11:07:14.598Z,20512.00
2023-05-05T11:08:12.730Z,20704.00
2023-05-05T11:09:11.735Z,20960.00
2023-05-05T11:10:11.888Z,20960.00
2023-05-05T11:11:11.724Z,20928.00
2023-05-05T11:12:11.715Z,20672.00
2023-05-05T11:13:11.711Z,20864.00
2023-05-05T11:14:11.693Z,20896.00
2023-05-05T11:15:11.738Z,20928.00
2023-05-05T11:16:11.691Z,20800.00
2023-05-05T11:17:11.642Z,20896.00
2023-05-05T11:18:11.692Z,20992.00
2023-05-05T11:19:11.646Z,20992.00
2023-05-05T11:20:11.622Z,21024.00
2023-05-05T11:21:11.600Z,21088.00
2023-05-05T11:22:11.632Z,21280.00
2023-05-05T11:23:11.924Z,21056.00
2023-05-05T11:24:11.580Z,20480.00
2023-05-05T11:25:12.566Z,19712.00
2023-05-05T11:26:11.564Z,19424.00
2023-05-05T11:27:11.546Z,19552.00
2023-05-05T11:28:11.553Z,19968.00
2023-05-05T11:29:11.536Z,19744.00
2023-05-05T11:30:11.717Z,19584.00
2023-05-05T11:31:11.577Z,18624.00
2023-05-05T11:32:11.498Z,18144.00
2023-05-05T11:33:11.517Z,16448.00
2023-05-05T11:34:11.483Z,16576.00
2023-05-05T11:35:11.475Z,15968.00
2023-05-05T11:36:11.468Z,16704.00
2023-05-05T11:37:11.462Z,15168.00
2023-05-05T11:38:12.458Z,15072.00
2023-05-05T11:39:11.444Z,13864.00
2023-05-05T11:40:11.434Z,13072.00
2023-05-05T11:41:11.418Z,12560.00
2023-05-05T11:42:11.464Z,12288.00
2023-05-05T11:43:11.403Z,12352.00
2023-05-05T11:44:11.393Z,12604.00
2023-05-05T11:45:11.387Z,12240.00
2023-05-05T11:46:11.415Z,12576.00
2023-05-05T11:47:11.390Z,13392.00
2023-05-05T11:48:11.371Z,15264.00
2023-05-05T11:49:11.347Z,16128.00
2023-05-05T11:50:11.352Z,16256.00
2023-05-05T11:51:11.351Z,15072.00
2023-05-05T11:53:29.800Z,13200.00
2023-05-05T11:54:29.813Z,11180.00
2023-05-05T11:55:29.794Z,10964.00
2023-05-05T11:56:29.794Z,10884.00
2023-05-05T11:57:29.770Z,10392.00
2023-05-05T11:58:29.770Z,8864.00
2023-05-05T11:59:30.877Z,7728.00
2023-05-05T12:00:30.971Z,6372.00
2023-05-05T12:01:30.875Z,5072.00
2023-05-05T12:02:30.934Z,4084.00
2023-05-05T12:03:30.911Z,3444.00
2023-05-05T12:04:30.956Z,3060.00
2023-05-05T12:05:30.873Z,2916.00
2023-05-05T12:06:30.815Z,2872.00
2023-05-05T12:07:30.814Z,2856.00
2023-05-05T12:08:30.791Z,2888.00
2023-05-05T12:09:30.779Z,2932.00
2023-05-05T12:10:30.783Z,3044.00
2023-05-05T12:11:30.767Z,3184.00
2023-05-05T12:12:30.777Z,3296.00
2023-05-05T12:13:30.732Z,3468.00
2023-05-05T12:14:30.754Z,3824.00
2023-05-05T12:15:30.731Z,4412.00
2023-05-05T12:16:30.746Z,5388.00
2023-05-05T12:17:30.720Z,6584.00
2023-05-05T12:18:30.819Z,7724.00
2023-05-05T12:19:30.687Z,8860.00